메인 페이지
METAR-TAF:

METAR-TAF

공항 :

Witham Field

스튜어트, 플로리다, 미국

위도: 27-10-54N, 경도: 080-13-16W, 고도: 6m

현재 날씨관측

예보는 43분 전, 15:47시(UTC)에 발표되었습니다.
남남동7kt
온도 30°C
습도 62%
기압 1018 hPa
시정: 11.3km
고도 2600ft 상공 구름 보통

METAR: KSUA 301547Z 15007KT 7SM SCT026 30/22 A3005

시각: 12:30 (16:30 UTC)

예보

예보는 5 시간 4분 전, 11:26시(UTC)에 발표되었습니다.
예보 대상 시간: 30일 12시부터 31일 12시까지 (UTC)
남남동5kt
시정: 10km
고도 4000ft 상공 구름 조금
30일 1730시부터 (UTC)
9kt
시정: 10km
고도 3500ft 상공 구름 보통, 적란운.
고도 7000ft 상공 구름 보통
시계 내 뇌우
일시적
30일 18시부터 30일 21시까지 (UTC)
시정: 4.8km
고도 3000ft 상공 구름 많음, 적란운.
고도 6000ft 상공 구름 많음
뇌우, 비
31일 0000시부터 (UTC)
여러 방향의 바람 5kt
시정: 10km
고도 4000ft 상공 구름 보통
고도 12000ft 상공 구름 많음
시계 내 소나기
31일 0100시부터 (UTC)
여러 방향의 바람 3kt
시정: 10km
고도 4000ft 상공 구름 보통
고도 25000ft 상공 구름 많음

TAF: KSUA 301126Z 3012/3112 16005KT P6SM FEW040 FM301730 10009KT P6SM VCTS SCT035CB SCT070 TEMPO 3018/3021 3SM TSRA BKN030CB BKN060 FM310000 VRB05KT P6SM VCSH SCT040 BKN120 FM310100 VRB03KT P6SM SCT040 BKN250

4,000개 이상의 공항 관측 자료 및 예보 (METAR 및 TAF 보고).

지도상에서 검색 가능한 기상관측소가 노란 점과 빨간 점으로 표시되어 있습니다.

기상관측소 명을 보려면 표시 위로 마우스를 이동하세요.

날씨 관측과 예보를 보려면 클릭하세요.

지도 변경 : 확대하려면 엑스 표시가 있는 녹색 버튼, 축소하려면 빼기 표시가 있는 녹색 버튼, 다음 페이지의 지도를 보려면 녹색 화살표를 클릭하세요.


METAR-TAF: